sensor_id;sensor_type;location;lat;lon;timestamp;temperature;humidity
1728;DHT22;861;48.808;9.006;2022-12-18T00:02:33;-5.70;99.90
1728;DHT22;861;48.808;9.006;2022-12-18T00:05:19;-5.70;99.90
1728;DHT22;861;48.808;9.006;2022-12-18T00:07:45;-5.80;99.90
1728;DHT22;861;48.808;9.006;2022-12-18T00:10:11;-6.00;99.90
1728;DHT22;861;48.808;9.006;2022-12-18T00:12:37;-5.90;99.90
1728;DHT22;861;48.808;9.006;2022-12-18T00:15:05;-5.80;99.90
1728;DHT22;861;48.808;9.006;2022-12-18T00:17:31;-5.80;99.90
1728;DHT22;861;48.808;9.006;2022-12-18T00:19:57;-5.80;99.90
1728;DHT22;861;48.808;9.006;2022-12-18T00:22:24;-5.90;99.90
1728;DHT22;861;48.808;9.006;2022-12-18T00:24:50;-6.00;99.90
1728;DHT22;861;48.808;9.006;2022-12-18T00:27:16;-6.00;99.90
1728;DHT22;861;48.808;9.006;2022-12-18T00:29:42;-6.00;99.90
1728;DHT22;861;48.808;9.006;2022-12-18T00:32:09;-5.90;99.90
1728;DHT22;861;48.808;9.006;2022-12-18T00:34:35;-6.00;99.90
1728;DHT22;861;48.808;9.006;2022-12-18T00:37:01;-5.90;99.90
1728;DHT22;861;48.808;9.006;2022-12-18T00:39:28;-5.90;99.90
1728;DHT22;861;48.808;9.006;2022-12-18T00:41:54;-5.90;99.90
1728;DHT22;861;48.808;9.006;2022-12-18T00:44:39;-6.00;99.90
1728;DHT22;861;48.808;9.006;2022-12-18T00:47:05;-6.10;99.90
1728;DHT22;861;48.808;9.006;2022-12-18T00:49:31;-6.30;99.90
1728;DHT22;861;48.808;9.006;2022-12-18T00:51:58;-6.20;99.90
1728;DHT22;861;48.808;9.006;2022-12-18T00:54:24;-6.30;99.90
1728;DHT22;861;48.808;9.006;2022-12-18T00:56:50;-6.40;99.90
1728;DHT22;861;48.808;9.006;2022-12-18T00:59:18;-6.40;99.90
1728;DHT22;861;48.808;9.006;2022-12-18T01:01:46;-6.60;99.90
1728;DHT22;861;48.808;9.006;2022-12-18T01:04:12;-6.60;99.90
1728;DHT22;861;48.808;9.006;2022-12-18T01:06:40;-6.50;99.90
1728;DHT22;861;48.808;9.006;2022-12-18T01:09:07;-6.50;99.90
1728;DHT22;861;48.808;9.006;2022-12-18T01:11:33;-6.50;99.90
1728;DHT22;861;48.808;9.006;2022-12-18T01:13:59;-6.50;99.90
1728;DHT22;861;48.808;9.006;2022-12-18T01:16:26;-6.70;99.90
1728;DHT22;861;48.808;9.006;2022-12-18T01:18:54;-6.60;99.90
1728;DHT22;861;48.808;9.006;2022-12-18T01:21:22;-6.50;99.90
1728;DHT22;861;48.808;9.006;2022-12-18T01:23:56;-6.40;99.90
1728;DHT22;861;48.808;9.006;2022-12-18T01:26:25;-6.30;99.90
1728;DHT22;861;48.808;9.006;2022-12-18T01:28:56;-6.30;99.90
1728;DHT22;861;48.808;9.006;2022-12-18T01:31:32;-6.40;99.90
1728;DHT22;861;48.808;9.006;2022-12-18T01:34:04;-6.40;99.90
1728;DHT22;861;48.808;9.006;2022-12-18T01:36:34;-6.40;99.90
1728;DHT22;861;48.808;9.006;2022-12-18T01:39:09;-6.40;99.90
1728;DHT22;861;48.808;9.006;2022-12-18T01:41:39;-6.50;99.90
1728;DHT22;861;48.808;9.006;2022-12-18T01:48:00;-6.50;99.90
1728;DHT22;861;48.808;9.006;2022-12-18T01:50:42;-6.60;99.90
1728;DHT22;861;48.808;9.006;2022-12-18T01:53:21;-6.60;99.90
1728;DHT22;861;48.808;9.006;2022-12-18T01:55:58;-6.60;99.90
1728;DHT22;861;48.808;9.006;2022-12-18T01:59:02;-6.70;99.90
1728;DHT22;861;48.808;9.006;2022-12-18T02:01:35;-6.70;99.90
1728;DHT22;861;48.808;9.006;2022-12-18T02:04:25;-6.60;99.90
1728;DHT22;861;48.808;9.006;2022-12-18T02:07:55;-6.60;99.90
1728;DHT22;861;48.808;9.006;2022-12-18T02:10:42;-6.50;99.90
1728;DHT22;861;48.808;9.006;2022-12-18T02:17:22;-6.40;99.90
1728;DHT22;861;48.808;9.006;2022-12-18T02:20:16;-6.40;99.90
1728;DHT22;861;48.808;9.006;2022-12-18T02:29:14;-6.60;99.90
1728;DHT22;861;48.808;9.006;2022-12-18T02:31:55;-6.50;99.90
1728;DHT22;861;48.808;9.006;2022-12-18T02:34:38;-6.40;99.90
1728;DHT22;861;48.808;9.006;2022-12-18T02:37:12;-6.40;99.90
1728;DHT22;861;48.808;9.006;2022-12-18T02:39:48;-6.30;99.90
1728;DHT22;861;48.808;9.006;2022-12-18T02:42:19;-6.30;99.90
1728;DHT22;861;48.808;9.006;2022-12-18T02:44:50;-6.20;99.90
1728;DHT22;861;48.808;9.006;2022-12-18T02:47:23;-6.40;99.90
1728;DHT22;861;48.808;9.006;2022-12-18T02:50:07;-6.30;99.90
1728;DHT22;861;48.808;9.006;2022-12-18T02:53:36;-6.30;99.90
1728;DHT22;861;48.808;9.006;2022-12-18T02:56:33;-6.10;99.90
1728;DHT22;861;48.808;9.006;2022-12-18T02:59:21;-6.00;99.90
1728;DHT22;861;48.808;9.006;2022-12-18T03:03:07;-5.90;99.90
1728;DHT22;861;48.808;9.006;2022-12-18T03:06:00;-6.10;99.90
1728;DHT22;861;48.808;9.006;2022-12-18T03:09:09;-6.10;99.90
1728;DHT22;861;48.808;9.006;2022-12-18T03:11:58;-6.00;99.90
1728;DHT22;861;48.808;9.006;2022-12-18T03:15:17;-5.90;99.90
1728;DHT22;861;48.808;9.006;2022-12-18T03:18:22;-5.80;99.90
1728;DHT22;861;48.808;9.006;2022-12-18T03:21:05;-5.80;99.90
1728;DHT22;861;48.808;9.006;2022-12-18T03:23:44;-5.90;99.90
1728;DHT22;861;48.808;9.006;2022-12-18T03:26:25;-5.90;99.90
1728;DHT22;861;48.808;9.006;2022-12-18T03:29:08;-5.80;99.90
1728;DHT22;861;48.808;9.006;2022-12-18T03:31:53;-5.60;99.90
1728;DHT22;861;48.808;9.006;2022-12-18T03:34:37;-5.40;99.90
1728;DHT22;861;48.808;9.006;2022-12-18T03:37:08;-5.20;99.90
1728;DHT22;861;48.808;9.006;2022-12-18T03:39:36;-5.10;99.90
1728;DHT22;861;48.808;9.006;2022-12-18T03:42:15;-5.00;99.90
1728;DHT22;861;48.808;9.006;2022-12-18T03:48:29;-5.40;99.90
1728;DHT22;861;48.808;9.006;2022-12-18T03:52:02;-5.20;99.90
1728;DHT22;861;48.808;9.006;2022-12-18T03:54:37;-5.00;99.90
1728;DHT22;861;48.808;9.006;2022-12-18T03:57:17;-4.80;99.90
1728;DHT22;861;48.808;9.006;2022-12-18T03:59:56;-4.90;99.90
1728;DHT22;861;48.808;9.006;2022-12-18T04:02:33;-5.00;99.90
1728;DHT22;861;48.808;9.006;2022-12-18T04:05:07;-5.00;99.90
1728;DHT22;861;48.808;9.006;2022-12-18T04:07:38;-5.00;99.90
1728;DHT22;861;48.808;9.006;2022-12-18T04:10:09;-5.10;99.90
1728;DHT22;861;48.808;9.006;2022-12-18T04:12:38;-5.00;99.90
1728;DHT22;861;48.808;9.006;2022-12-18T04:15:07;-5.10;99.90
1728;DHT22;861;48.808;9.006;2022-12-18T04:17:34;-5.00;99.90
1728;DHT22;861;48.808;9.006;2022-12-18T04:20:00;-4.80;99.90
1728;DHT22;861;48.808;9.006;2022-12-18T04:22:27;-4.60;99.90
1728;DHT22;861;48.808;9.006;2022-12-18T04:24:54;-4.50;99.90
1728;DHT22;861;48.808;9.006;2022-12-18T04:27:20;-4.50;99.90
1728;DHT22;861;48.808;9.006;2022-12-18T04:29:47;-4.70;99.90
1728;DHT22;861;48.808;9.006;2022-12-18T04:32:13;-4.70;99.90
1728;DHT22;861;48.808;9.006;2022-12-18T04:34:39;-4.80;99.90
1728;DHT22;861;48.808;9.006;2022-12-18T04:37:05;-4.90;99.90
1728;DHT22;861;48.808;9.006;2022-12-18T04:39:32;-5.00;99.90
1728;DHT22;861;48.808;9.006;2022-12-18T04:41:58;-5.00;99.90
1728;DHT22;861;48.808;9.006;2022-12-18T04:44:25;-5.10;99.90
1728;DHT22;861;48.808;9.006;2022-12-18T04:46:51;-5.10;99.90
1728;DHT22;861;48.808;9.006;2022-12-18T04:49:18;-5.10;99.90
1728;DHT22;861;48.808;9.006;2022-12-18T04:51:44;-5.10;99.90
1728;DHT22;861;48.808;9.006;2022-12-18T04:54:10;-5.10;99.90
1728;DHT22;861;48.808;9.006;2022-12-18T04:56:36;-5.10;99.90
1728;DHT22;861;48.808;9.006;2022-12-18T04:59:03;-5.20;99.90
1728;DHT22;861;48.808;9.006;2022-12-18T05:01:29;-5.20;99.90
1728;DHT22;861;48.808;9.006;2022-12-18T05:03:55;-5.30;99.90
1728;DHT22;861;48.808;9.006;2022-12-18T05:06:22;-5.40;99.90
1728;DHT22;861;48.808;9.006;2022-12-18T05:08:48;-5.20;99.90
1728;DHT22;861;48.808;9.006;2022-12-18T05:11:15;-5.10;99.90
1728;DHT22;861;48.808;9.006;2022-12-18T05:13:44;-5.20;99.90
1728;DHT22;861;48.808;9.006;2022-12-18T05:16:14;-5.10;99.90
1728;DHT22;861;48.808;9.006;2022-12-18T05:18:42;-5.10;99.90
1728;DHT22;861;48.808;9.006;2022-12-18T05:21:08;-5.20;99.90
1728;DHT22;861;48.808;9.006;2022-12-18T05:23:35;-5.20;99.90
1728;DHT22;861;48.808;9.006;2022-12-18T05:26:05;-5.20;99.90
1728;DHT22;861;48.808;9.006;2022-12-18T05:28:36;-5.20;99.90
1728;DHT22;861;48.808;9.006;2022-12-18T05:31:04;-5.30;99.90
1728;DHT22;861;48.808;9.006;2022-12-18T05:33:34;-5.30;99.90
1728;DHT22;861;48.808;9.006;2022-12-18T05:36:06;-5.40;99.90
1728;DHT22;861;48.808;9.006;2022-12-18T05:38:38;-5.30;99.90
1728;DHT22;861;48.808;9.006;2022-12-18T05:41:07;-5.30;99.90
1728;DHT22;861;48.808;9.006;2022-12-18T05:43:37;-5.10;99.90
1728;DHT22;861;48.808;9.006;2022-12-18T05:46:09;-5.00;99.90
1728;DHT22;861;48.808;9.006;2022-12-18T05:48:42;-5.10;99.90
1728;DHT22;861;48.808;9.006;2022-12-18T05:51:15;-5.20;99.90
1728;DHT22;861;48.808;9.006;2022-12-18T05:53:44;-5.00;99.90
1728;DHT22;861;48.808;9.006;2022-12-18T05:56:19;-5.00;99.90
1728;DHT22;861;48.808;9.006;2022-12-18T05:58:47;-5.00;99.90
1728;DHT22;861;48.808;9.006;2022-12-18T06:01:26;-5.00;99.90
1728;DHT22;861;48.808;9.006;2022-12-18T06:03:53;-5.00;99.90
1728;DHT22;861;48.808;9.006;2022-12-18T06:06:24;-5.10;99.90
1728;DHT22;861;48.808;9.006;2022-12-18T06:08:54;-5.10;99.90
1728;DHT22;861;48.808;9.006;2022-12-18T06:11:25;-5.10;99.90
1728;DHT22;861;48.808;9.006;2022-12-18T06:13:55;-5.20;99.90
1728;DHT22;861;48.808;9.006;2022-12-18T06:16:22;-5.00;99.90
1728;DHT22;861;48.808;9.006;2022-12-18T06:18:48;-5.00;99.90
1728;DHT22;861;48.808;9.006;2022-12-18T06:21:15;-4.90;99.90
1728;DHT22;861;48.808;9.006;2022-12-18T06:23:41;-4.80;99.90
1728;DHT22;861;48.808;9.006;2022-12-18T06:26:11;-4.80;99.90
1728;DHT22;861;48.808;9.006;2022-12-18T06:28:39;-4.80;99.90
1728;DHT22;861;48.808;9.006;2022-12-18T06:31:06;-4.90;99.90
1728;DHT22;861;48.808;9.006;2022-12-18T06:33:35;-4.80;99.90
1728;DHT22;861;48.808;9.006;2022-12-18T06:36:10;-4.60;99.90
1728;DHT22;861;48.808;9.006;2022-12-18T06:38:42;-4.60;99.90
1728;DHT22;861;48.808;9.006;2022-12-18T06:41:16;-4.70;99.90
1728;DHT22;861;48.808;9.006;2022-12-18T06:43:46;-4.50;99.90
1728;DHT22;861;48.808;9.006;2022-12-18T06:46:13;-4.40;99.90
1728;DHT22;861;48.808;9.006;2022-12-18T06:48:40;-4.50;99.90
1728;DHT22;861;48.808;9.006;2022-12-18T06:51:06;-4.60;99.90
1728;DHT22;861;48.808;9.006;2022-12-18T06:53:33;-4.70;99.90
1728;DHT22;861;48.808;9.006;2022-12-18T06:56:06;-4.70;99.90
1728;DHT22;861;48.808;9.006;2022-12-18T06:58:33;-4.60;99.90
1728;DHT22;861;48.808;9.006;2022-12-18T07:01:02;-4.60;99.90
1728;DHT22;861;48.808;9.006;2022-12-18T07:03:32;-4.50;99.90
1728;DHT22;861;48.808;9.006;2022-12-18T07:05:58;-4.50;99.90
1728;DHT22;861;48.808;9.006;2022-12-18T07:08:24;-4.50;99.90
1728;DHT22;861;48.808;9.006;2022-12-18T07:10:51;-4.70;99.90
1728;DHT22;861;48.808;9.006;2022-12-18T07:13:18;-4.70;99.90
1728;DHT22;861;48.808;9.006;2022-12-18T07:15:44;-4.80;99.90
1728;DHT22;861;48.808;9.006;2022-12-18T07:18:10;-4.60;99.90
1728;DHT22;861;48.808;9.006;2022-12-18T07:20:37;-4.70;99.90
1728;DHT22;861;48.808;9.006;2022-12-18T07:23:04;-4.90;99.90
1728;DHT22;861;48.808;9.006;2022-12-18T07:25:35;-5.00;99.90
1728;DHT22;861;48.808;9.006;2022-12-18T07:28:02;-5.20;99.90
1728;DHT22;861;48.808;9.006;2022-12-18T07:30:29;-5.20;99.90
1728;DHT22;861;48.808;9.006;2022-12-18T07:32:55;-5.30;99.90
1728;DHT22;861;48.808;9.006;2022-12-18T07:35:22;-5.30;99.90
1728;DHT22;861;48.808;9.006;2022-12-18T07:37:48;-5.40;99.90
1728;DHT22;861;48.808;9.006;2022-12-18T07:40:14;-5.20;99.90
1728;DHT22;861;48.808;9.006;2022-12-18T07:42:40;-4.90;99.90
1728;DHT22;861;48.808;9.006;2022-12-18T07:45:07;-4.90;99.90
1728;DHT22;861;48.808;9.006;2022-12-18T07:47:35;-4.70;99.90
1728;DHT22;861;48.808;9.006;2022-12-18T07:50:03;-4.60;99.90
1728;DHT22;861;48.808;9.006;2022-12-18T07:52:30;-4.60;99.90
1728;DHT22;861;48.808;9.006;2022-12-18T07:54:57;-4.50;99.90
1728;DHT22;861;48.808;9.006;2022-12-18T07:57:23;-4.50;99.90
1728;DHT22;861;48.808;9.006;2022-12-18T07:59:49;-4.50;99.90
1728;DHT22;861;48.808;9.006;2022-12-18T08:02:34;-4.50;99.90
1728;DHT22;861;48.808;9.006;2022-12-18T08:05:18;-4.50;99.90
1728;DHT22;861;48.808;9.006;2022-12-18T08:08:06;-4.60;99.90
1728;DHT22;861;48.808;9.006;2022-12-18T08:10:52;-4.60;99.90
1728;DHT22;861;48.808;9.006;2022-12-18T08:13:39;-4.60;99.90
1728;DHT22;861;48.808;9.006;2022-12-18T08:16:25;-4.40;99.90
1728;DHT22;861;48.808;9.006;2022-12-18T08:19:04;-4.30;99.90
1728;DHT22;861;48.808;9.006;2022-12-18T08:21:31;-4.10;99.90
1728;DHT22;861;48.808;9.006;2022-12-18T08:24:00;-4.10;99.90
1728;DHT22;861;48.808;9.006;2022-12-18T08:26:30;-4.10;99.90
1728;DHT22;861;48.808;9.006;2022-12-18T08:28:59;-4.10;99.90
1728;DHT22;861;48.808;9.006;2022-12-18T08:31:28;-4.10;99.90
1728;DHT22;861;48.808;9.006;2022-12-18T08:33:57;-3.80;99.90
1728;DHT22;861;48.808;9.006;2022-12-18T08:38:57;-3.50;99.90
1728;DHT22;861;48.808;9.006;2022-12-18T08:41:24;-3.50;99.90
1728;DHT22;861;48.808;9.006;2022-12-18T08:43:50;-3.40;99.90
1728;DHT22;861;48.808;9.006;2022-12-18T08:46:42;-3.40;99.90
1728;DHT22;861;48.808;9.006;2022-12-18T08:49:11;-3.30;99.90
1728;DHT22;861;48.808;9.006;2022-12-18T08:51:38;-3.00;99.90
1728;DHT22;861;48.808;9.006;2022-12-18T08:54:06;-3.00;99.90
1728;DHT22;861;48.808;9.006;2022-12-18T08:56:34;-2.70;99.90
1728;DHT22;861;48.808;9.006;2022-12-18T08:59:01;-2.50;99.90
1728;DHT22;861;48.808;9.006;2022-12-18T09:01:28;-2.40;99.90
1728;DHT22;861;48.808;9.006;2022-12-18T09:03:54;-2.20;99.90
1728;DHT22;861;48.808;9.006;2022-12-18T09:06:23;-2.10;99.90
1728;DHT22;861;48.808;9.006;2022-12-18T09:08:50;-2.20;99.90
1728;DHT22;861;48.808;9.006;2022-12-18T09:11:24;-2.30;99.90
1728;DHT22;861;48.808;9.006;2022-12-18T09:13:55;-2.30;99.90
1728;DHT22;861;48.808;9.006;2022-12-18T09:16:24;-2.10;99.90
1728;DHT22;861;48.808;9.006;2022-12-18T09:18:56;-1.80;99.90
1728;DHT22;861;48.808;9.006;2022-12-18T09:21:29;-1.60;99.90
1728;DHT22;861;48.808;9.006;2022-12-18T09:23:59;-1.30;99.90
1728;DHT22;861;48.808;9.006;2022-12-18T09:26:27;-1.00;99.90
1728;DHT22;861;48.808;9.006;2022-12-18T09:28:54;-1.00;99.90
1728;DHT22;861;48.808;9.006;2022-12-18T09:31:24;-0.80;99.90
1728;DHT22;861;48.808;9.006;2022-12-18T09:33:51;-0.80;99.90
1728;DHT22;861;48.808;9.006;2022-12-18T09:36:18;-0.90;99.90
1728;DHT22;861;48.808;9.006;2022-12-18T09:38:45;-0.80;99.90
1728;DHT22;861;48.808;9.006;2022-12-18T09:41:50;-0.60;99.90
1728;DHT22;861;48.808;9.006;2022-12-18T09:47:25;-0.10;99.90
1728;DHT22;861;48.808;9.006;2022-12-18T09:50:27;0.10;99.90
1728;DHT22;861;48.808;9.006;2022-12-18T09:53:07;0.20;99.90
1728;DHT22;861;48.808;9.006;2022-12-18T09:55:48;0.20;99.90
1728;DHT22;861;48.808;9.006;2022-12-18T09:58:36;0.30;99.90
1728;DHT22;861;48.808;9.006;2022-12-18T10:01:21;0.20;99.90
1728;DHT22;861;48.808;9.006;2022-12-18T10:03:50;0.30;99.90
1728;DHT22;861;48.808;9.006;2022-12-18T10:06:54;0.40;99.90
1728;DHT22;861;48.808;9.006;2022-12-18T10:09:53;0.40;99.90
1728;DHT22;861;48.808;9.006;2022-12-18T10:16:04;0.90;99.90
1728;DHT22;861;48.808;9.006;2022-12-18T10:19:15;1.00;99.90
1728;DHT22;861;48.808;9.006;2022-12-18T10:22:38;0.80;99.90
1728;DHT22;861;48.808;9.006;2022-12-18T10:25:38;0.60;99.90
1728;DHT22;861;48.808;9.006;2022-12-18T10:28:31;0.50;99.90
1728;DHT22;861;48.808;9.006;2022-12-18T10:31:18;0.60;99.90
1728;DHT22;861;48.808;9.006;2022-12-18T10:33:48;0.70;99.90
1728;DHT22;861;48.808;9.006;2022-12-18T10:36:15;0.70;99.90
1728;DHT22;861;48.808;9.006;2022-12-18T10:38:42;1.00;99.90
1728;DHT22;861;48.808;9.006;2022-12-18T10:43:44;1.30;99.90
1728;DHT22;861;48.808;9.006;2022-12-18T10:48:52;1.70;99.90
1728;DHT22;861;48.808;9.006;2022-12-18T10:51:37;2.10;99.90
1728;DHT22;861;48.808;9.006;2022-12-18T10:54:18;2.30;99.90
1728;DHT22;861;48.808;9.006;2022-12-18T10:56:49;2.40;99.90
1728;DHT22;861;48.808;9.006;2022-12-18T10:59:17;2.40;99.90
1728;DHT22;861;48.808;9.006;2022-12-18T11:01:55;2.40;99.90
1728;DHT22;861;48.808;9.006;2022-12-18T11:04:31;2.40;99.90
1728;DHT22;861;48.808;9.006;2022-12-18T11:07:00;2.30;99.90
1728;DHT22;861;48.808;9.006;2022-12-18T11:09:40;2.40;99.90
1728;DHT22;861;48.808;9.006;2022-12-18T11:12:22;2.70;99.90
1728;DHT22;861;48.808;9.006;2022-12-18T11:14:53;2.70;99.90
1728;DHT22;861;48.808;9.006;2022-12-18T11:17:35;3.00;99.90
1728;DHT22;861;48.808;9.006;2022-12-18T11:20:31;3.00;99.90
1728;DHT22;861;48.808;9.006;2022-12-18T11:23:05;2.90;99.90
1728;DHT22;861;48.808;9.006;2022-12-18T11:25:56;2.80;99.90
1728;DHT22;861;48.808;9.006;2022-12-18T11:28:43;3.10;99.90
1728;DHT22;861;48.808;9.006;2022-12-18T11:31:26;3.20;99.90
1728;DHT22;861;48.808;9.006;2022-12-18T11:34:25;3.50;99.90
1728;DHT22;861;48.808;9.006;2022-12-18T11:37:01;3.60;99.90
1728;DHT22;861;48.808;9.006;2022-12-18T11:39:57;3.60;99.90
1728;DHT22;861;48.808;9.006;2022-12-18T11:43:17;3.60;99.90
1728;DHT22;861;48.808;9.006;2022-12-18T11:46:26;3.50;99.90
1728;DHT22;861;48.808;9.006;2022-12-18T11:49:33;3.80;99.90
1728;DHT22;861;48.808;9.006;2022-12-18T11:52:24;3.70;99.90
1728;DHT22;861;48.808;9.006;2022-12-18T11:55:10;4.00;99.90
1728;DHT22;861;48.808;9.006;2022-12-18T12:00:52;3.80;99.90
1728;DHT22;861;48.808;9.006;2022-12-18T12:10:56;4.20;99.90
1728;DHT22;861;48.808;9.006;2022-12-18T12:17:03;4.20;99.90
1728;DHT22;861;48.808;9.006;2022-12-18T12:20:21;4.30;99.90
1728;DHT22;861;48.808;9.006;2022-12-18T12:30:16;4.30;99.90
1728;DHT22;861;48.808;9.006;2022-12-18T12:33:37;4.20;99.90
1728;DHT22;861;48.808;9.006;2022-12-18T12:37:02;4.20;99.90
1728;DHT22;861;48.808;9.006;2022-12-18T12:40:03;4.30;99.90
1728;DHT22;861;48.808;9.006;2022-12-18T12:42:43;4.30;99.90
1728;DHT22;861;48.808;9.006;2022-12-18T12:45:52;4.30;99.90
1728;DHT22;861;48.808;9.006;2022-12-18T12:48:49;4.70;99.90
1728;DHT22;861;48.808;9.006;2022-12-18T12:51:27;4.70;99.90
1728;DHT22;861;48.808;9.006;2022-12-18T12:54:04;4.60;99.90
1728;DHT22;861;48.808;9.006;2022-12-18T13:00:15;4.30;99.90
1728;DHT22;861;48.808;9.006;2022-12-18T13:07:09;4.20;99.90
1728;DHT22;861;48.808;9.006;2022-12-18T13:10:12;4.30;99.90
1728;DHT22;861;48.808;9.006;2022-12-18T13:13:06;4.20;99.90
1728;DHT22;861;48.808;9.006;2022-12-18T13:16:02;4.30;99.90
1728;DHT22;861;48.808;9.006;2022-12-18T13:18:35;4.40;99.90
1728;DHT22;861;48.808;9.006;2022-12-18T13:21:32;4.40;99.90
1728;DHT22;861;48.808;9.006;2022-12-18T13:24:30;4.40;99.90
1728;DHT22;861;48.808;9.006;2022-12-18T13:26:57;4.50;99.90
1728;DHT22;861;48.808;9.006;2022-12-18T13:29:45;4.70;99.90
1728;DHT22;861;48.808;9.006;2022-12-18T13:32:25;4.60;99.90
1728;DHT22;861;48.808;9.006;2022-12-18T13:37:54;4.30;99.90
1728;DHT22;861;48.808;9.006;2022-12-18T13:46:44;4.20;99.90
1728;DHT22;861;48.808;9.006;2022-12-18T13:51:50;3.60;99.90
1728;DHT22;861;48.808;9.006;2022-12-18T13:54:41;3.30;99.90
1728;DHT22;861;48.808;9.006;2022-12-18T13:57:47;3.50;99.90
1728;DHT22;861;48.808;9.006;2022-12-18T14:02:49;4.10;99.90
1728;DHT22;861;48.808;9.006;2022-12-18T14:05:29;4.30;99.90
1728;DHT22;861;48.808;9.006;2022-12-18T14:08:08;4.10;99.90
1728;DHT22;861;48.808;9.006;2022-12-18T14:10:47;4.00;99.90
1728;DHT22;861;48.808;9.006;2022-12-18T14:13:39;3.80;99.90
1728;DHT22;861;48.808;9.006;2022-12-18T14:16:14;3.50;99.90
1728;DHT22;861;48.808;9.006;2022-12-18T14:18:52;3.40;99.90
1728;DHT22;861;48.808;9.006;2022-12-18T14:21:27;3.30;99.90
1728;DHT22;861;48.808;9.006;2022-12-18T14:24:17;3.30;99.90
1728;DHT22;861;48.808;9.006;2022-12-18T14:26:50;3.40;99.90
1728;DHT22;861;48.808;9.006;2022-12-18T14:29:30;3.20;99.90
1728;DHT22;861;48.808;9.006;2022-12-18T14:32:14;3.20;99.90
1728;DHT22;861;48.808;9.006;2022-12-18T14:34:49;3.20;99.90
1728;DHT22;861;48.808;9.006;2022-12-18T14:37:27;3.10;99.90
1728;DHT22;861;48.808;9.006;2022-12-18T14:40:02;3.10;99.90
1728;DHT22;861;48.808;9.006;2022-12-18T14:42:31;3.00;99.90
1728;DHT22;861;48.808;9.006;2022-12-18T14:45:44;2.70;99.90
1728;DHT22;861;48.808;9.006;2022-12-18T14:48:19;2.70;99.90
1728;DHT22;861;48.808;9.006;2022-12-18T14:51:17;2.70;99.90
1728;DHT22;861;48.808;9.006;2022-12-18T14:53:55;2.60;99.90
1728;DHT22;861;48.808;9.006;2022-12-18T14:56:36;2.40;99.90
1728;DHT22;861;48.808;9.006;2022-12-18T14:59:23;2.40;99.90
1728;DHT22;861;48.808;9.006;2022-12-18T15:02:27;2.20;99.90
1728;DHT22;861;48.808;9.006;2022-12-18T15:07:48;1.80;99.90
1728;DHT22;861;48.808;9.006;2022-12-18T15:10:48;1.80;99.90
1728;DHT22;861;48.808;9.006;2022-12-18T15:13:25;1.80;99.90
1728;DHT22;861;48.808;9.006;2022-12-18T15:15:55;1.70;99.90
1728;DHT22;861;48.808;9.006;2022-12-18T15:18:41;1.70;99.90
1728;DHT22;861;48.808;9.006;2022-12-18T15:21:18;1.70;99.90
1728;DHT22;861;48.808;9.006;2022-12-18T15:23:50;1.50;99.90
1728;DHT22;861;48.808;9.006;2022-12-18T15:26:21;1.20;99.90
1728;DHT22;861;48.808;9.006;2022-12-18T15:28:55;1.20;99.90
1728;DHT22;861;48.808;9.006;2022-12-18T15:31:24;1.20;99.90
1728;DHT22;861;48.808;9.006;2022-12-18T15:36:29;1.00;99.90
1728;DHT22;861;48.808;9.006;2022-12-18T15:38:57;0.80;99.90
1728;DHT22;861;48.808;9.006;2022-12-18T15:41:24;0.90;99.90
1728;DHT22;861;48.808;9.006;2022-12-18T15:43:53;0.90;99.90
1728;DHT22;861;48.808;9.006;2022-12-18T15:46:22;0.80;99.90
1728;DHT22;861;48.808;9.006;2022-12-18T15:48:54;0.70;99.90
1728;DHT22;861;48.808;9.006;2022-12-18T15:51:34;0.80;99.90
1728;DHT22;861;48.808;9.006;2022-12-18T15:54:11;0.60;99.90
1728;DHT22;861;48.808;9.006;2022-12-18T15:56:41;0.40;99.90
1728;DHT22;861;48.808;9.006;2022-12-18T15:59:27;0.20;99.90
1728;DHT22;861;48.808;9.006;2022-12-18T16:01:53;0.20;99.90
1728;DHT22;861;48.808;9.006;2022-12-18T16:04:21;0.20;99.90
1728;DHT22;861;48.808;9.006;2022-12-18T16:06:49;0.10;99.90
1728;DHT22;861;48.808;9.006;2022-12-18T16:09:17;-0.20;99.90
1728;DHT22;861;48.808;9.006;2022-12-18T16:11:44;-0.20;99.90
1728;DHT22;861;48.808;9.006;2022-12-18T16:14:26;-0.20;99.90
1728;DHT22;861;48.808;9.006;2022-12-18T16:17:02;0.00;99.90
1728;DHT22;861;48.808;9.006;2022-12-18T16:19:34;0.10;99.90
1728;DHT22;861;48.808;9.006;2022-12-18T16:22:03;0.30;99.90
1728;DHT22;861;48.808;9.006;2022-12-18T16:24:33;0.40;99.90
1728;DHT22;861;48.808;9.006;2022-12-18T16:27:02;0.30;99.90
1728;DHT22;861;48.808;9.006;2022-12-18T16:29:29;0.20;99.90
1728;DHT22;861;48.808;9.006;2022-12-18T16:31:58;0.00;99.90
1728;DHT22;861;48.808;9.006;2022-12-18T16:34:32;0.00;99.90
1728;DHT22;861;48.808;9.006;2022-12-18T16:37:04;0.10;99.90
1728;DHT22;861;48.808;9.006;2022-12-18T16:39:34;0.10;99.90
1728;DHT22;861;48.808;9.006;2022-12-18T16:42:16;-0.40;99.90
1728;DHT22;861;48.808;9.006;2022-12-18T16:44:47;-0.40;99.90
1728;DHT22;861;48.808;9.006;2022-12-18T16:47:15;-0.50;99.90
1728;DHT22;861;48.808;9.006;2022-12-18T16:49:44;-0.40;99.90
1728;DHT22;861;48.808;9.006;2022-12-18T16:52:11;-0.10;99.90
1728;DHT22;861;48.808;9.006;2022-12-18T16:54:38;0.00;99.90
1728;DHT22;861;48.808;9.006;2022-12-18T16:57:05;0.00;99.90
1728;DHT22;861;48.808;9.006;2022-12-18T16:59:34;0.00;99.90
1728;DHT22;861;48.808;9.006;2022-12-18T17:02:00;-0.30;99.90
1728;DHT22;861;48.808;9.006;2022-12-18T17:04:26;-0.20;99.90
1728;DHT22;861;48.808;9.006;2022-12-18T17:06:53;-0.30;99.90
1728;DHT22;861;48.808;9.006;2022-12-18T17:09:21;-0.20;99.90
1728;DHT22;861;48.808;9.006;2022-12-18T17:11:52;-0.30;99.90
1728;DHT22;861;48.808;9.006;2022-12-18T17:14:22;-0.60;99.90
1728;DHT22;861;48.808;9.006;2022-12-18T17:16:51;-0.50;99.90
1728;DHT22;861;48.808;9.006;2022-12-18T17:19:19;-0.40;99.90
1728;DHT22;861;48.808;9.006;2022-12-18T17:21:49;-0.40;99.90
1728;DHT22;861;48.808;9.006;2022-12-18T17:24:17;-0.50;99.90
1728;DHT22;861;48.808;9.006;2022-12-18T17:26:44;-0.50;99.90
1728;DHT22;861;48.808;9.006;2022-12-18T17:29:19;-0.40;99.90
1728;DHT22;861;48.808;9.006;2022-12-18T17:31:47;-0.50;99.90
1728;DHT22;861;48.808;9.006;2022-12-18T17:34:14;-0.50;99.90
1728;DHT22;861;48.808;9.006;2022-12-18T17:36:41;-0.50;99.90
1728;DHT22;861;48.808;9.006;2022-12-18T17:39:10;-0.60;99.90
1728;DHT22;861;48.808;9.006;2022-12-18T17:41:44;-0.70;99.90
1728;DHT22;861;48.808;9.006;2022-12-18T17:44:11;-0.90;99.90
1728;DHT22;861;48.808;9.006;2022-12-18T17:46:37;-0.90;99.90
1728;DHT22;861;48.808;9.006;2022-12-18T17:49:04;-0.80;99.90
1728;DHT22;861;48.808;9.006;2022-12-18T17:51:30;-0.60;99.90
1728;DHT22;861;48.808;9.006;2022-12-18T17:53:57;-0.60;99.90
1728;DHT22;861;48.808;9.006;2022-12-18T17:56:24;-0.60;99.90
1728;DHT22;861;48.808;9.006;2022-12-18T17:58:51;-0.30;99.90
1728;DHT22;861;48.808;9.006;2022-12-18T18:01:22;-0.10;99.90
1728;DHT22;861;48.808;9.006;2022-12-18T18:03:51;-0.10;99.90
1728;DHT22;861;48.808;9.006;2022-12-18T18:06:18;0.00;99.90
1728;DHT22;861;48.808;9.006;2022-12-18T18:08:45;0.20;99.90
1728;DHT22;861;48.808;9.006;2022-12-18T18:11:16;0.20;99.90
1728;DHT22;861;48.808;9.006;2022-12-18T18:14:12;0.00;99.90
1728;DHT22;861;48.808;9.006;2022-12-18T18:16:49;0.00;99.90
1728;DHT22;861;48.808;9.006;2022-12-18T18:19:21;-0.10;99.90
1728;DHT22;861;48.808;9.006;2022-12-18T18:21:52;-0.30;99.90
1728;DHT22;861;48.808;9.006;2022-12-18T18:24:22;-0.30;99.90
1728;DHT22;861;48.808;9.006;2022-12-18T18:26:49;-0.40;99.90
1728;DHT22;861;48.808;9.006;2022-12-18T18:29:23;-0.50;99.90
1728;DHT22;861;48.808;9.006;2022-12-18T18:31:51;-0.40;99.90
1728;DHT22;861;48.808;9.006;2022-12-18T18:34:21;-0.30;99.90
1728;DHT22;861;48.808;9.006;2022-12-18T18:36:50;-0.10;99.90
1728;DHT22;861;48.808;9.006;2022-12-18T18:39:17;0.10;99.90
1728;DHT22;861;48.808;9.006;2022-12-18T18:41:43;0.20;99.90